Time;durP1;ratioP1;P1;durP2;ratioP2;P2;SDS_P1;SDS_P2;PMS_P1;PMS_P2;Temp;Humidity;BMP_temperature;BMP_pressure;BME280_temperature;BME280_humidity;BME280_pressure;Samples;Min_cycle;Max_cycle;Signal;HPM_P1;HPM_P2
2021/12/01 00:02:10;;;;;;;2.33;2.13;;;10.00;98.40;;;;;;4952930;28;20477;-73
2021/12/01 00:04:36;;;;;;;2.80;2.07;;;10.00;97.50;;;;;;4952109;29;20397;-72
2021/12/01 00:07:01;;;;;;;3.20;2.20;;;10.00;96.30;;;;;;4952700;29;20405;-72
2021/12/01 00:09:27;;;;;;;2.20;2.00;;;10.00;93.80;;;;;;4952858;28;20401;-72
2021/12/01 00:11:53;;;;;;;2.47;2.10;;;10.00;95.90;;;;;;4951977;28;20417;-72
2021/12/01 00:14:18;;;;;;;2.70;1.90;;;10.00;96.00;;;;;;4955916;28;20401;-72
2021/12/01 00:16:44;;;;;;;2.30;2.10;;;10.00;94.40;;;;;;4956082;29;20875;-73
2021/12/01 00:19:09;;;;;;;3.53;2.10;;;10.00;94.40;;;;;;4955800;29;20404;-72
2021/12/01 00:21:35;;;;;;;2.10;1.90;;;10.00;95.60;;;;;;4955587;28;20942;-73
2021/12/01 00:24:01;;;;;;;2.53;1.80;;;10.00;95.60;;;;;;4955663;29;20433;-73
2021/12/01 00:26:26;;;;;;;2.00;1.70;;;10.00;95.70;;;;;;4955470;29;20405;-73
2021/12/01 00:28:52;;;;;;;2.10;1.90;;;10.00;96.00;;;;;;4955747;29;20385;-73
2021/12/01 00:31:17;;;;;;;3.10;1.70;;;9.90;96.40;;;;;;4955545;28;21126;-73
2021/12/01 00:33:43;;;;;;;1.80;1.70;;;10.00;92.80;;;;;;4955299;29;20394;-73
2021/12/01 00:36:13;;;;;;;2.50;2.00;;;10.00;93.10;;;;;;4956056;28;20488;-72
2021/12/01 00:38:40;;;;;;;2.80;1.80;;;10.00;91.60;;;;;;4955637;28;20393;-72
2021/12/01 00:41:07;;;;;;;1.80;1.70;;;10.00;92.60;;;;;;4953748;29;20422;-72
2021/12/01 00:43:35;;;;;;;3.97;1.70;;;10.00;92.50;;;;;;4953025;29;20489;-75
2021/12/01 00:46:10;;;;;;;2.67;1.60;;;10.10;91.20;;;;;;4939727;29;20463;-72
2021/12/01 00:48:36;;;;;;;1.80;1.70;;;10.00;88.70;;;;;;4936361;29;20877;-74
2021/12/01 00:51:02;;;;;;;1.65;1.55;;;10.00;87.20;;;;;;4948248;29;20405;-74
2021/12/01 00:53:27;;;;;;;2.70;1.40;;;10.10;84.60;;;;;;4955490;28;20855;-73
2021/12/01 00:55:53;;;;;;;2.97;1.30;;;10.10;85.20;;;;;;4955071;28;20449;-73
2021/12/01 00:58:20;;;;;;;1.30;1.20;;;10.00;85.00;;;;;;4955891;29;20811;-72
2021/12/01 01:00:48;;;;;;;1.45;1.35;;;10.00;84.60;;;;;;4955478;28;20449;-72
2021/12/01 01:03:15;;;;;;;3.00;1.20;;;10.00;82.90;;;;;;4955278;28;20394;-72
2021/12/01 01:05:40;;;;;;;1.50;1.40;;;10.00;82.40;;;;;;4955243;29;20473;-75
2021/12/01 01:08:07;;;;;;;1.27;1.17;;;10.00;83.00;;;;;;4954868;29;20382;-73
2021/12/01 01:18:34;;;;;;;2.70;1.58;;;10.10;79.00;;;;;;4955265;29;20476;-73
2021/12/01 01:21:00;;;;;;;2.15;1.45;;;10.10;77.80;;;;;;4954913;28;20481;-73
2021/12/01 01:23:29;;;;;;;1.50;1.40;;;10.10;78.20;;;;;;4954406;28;20811;-72
2021/12/01 01:25:56;;;;;;;2.25;1.20;;;10.10;77.50;;;;;;4954688;29;20402;-73
2021/12/01 01:28:21;;;;;;;1.70;1.60;;;10.10;77.80;;;;;;4954883;28;20410;-74
2021/12/01 01:30:47;;;;;;;3.87;1.67;;;10.00;78.70;;;;;;4954837;29;20470;-73
2021/12/01 01:33:13;;;;;;;2.13;1.50;;;10.10;78.50;;;;;;4954494;28;20455;-73
2021/12/01 01:35:38;;;;;;;3.90;1.67;;;10.00;79.10;;;;;;4954761;29;20394;-72
2021/12/01 01:38:04;;;;;;;3.40;1.40;;;10.10;76.50;;;;;;4954561;29;20397;-73
2021/12/01 01:40:29;;;;;;;3.40;1.50;;;10.10;76.50;;;;;;4954093;29;20632;-73
2021/12/01 01:42:55;;;;;;;3.13;1.80;;;10.10;76.70;;;;;;4954066;29;20390;-73
2021/12/01 01:45:20;;;;;;;1.83;1.47;;;10.10;75.20;;;;;;4954936;28;20393;-74
2021/12/01 01:47:59;;;;;;;3.37;1.27;;;10.10;75.40;;;;;;4955048;28;20393;-73
2021/12/01 01:50:37;;;;;;;1.60;1.50;;;10.10;75.00;;;;;;4954644;29;20493;-72
2021/12/01 01:53:05;;;;;;;1.60;1.50;;;10.10;74.20;;;;;;4954312;29;20413;-72
2021/12/01 01:55:31;;;;;;;1.77;1.20;;;10.10;73.90;;;;;;4954021;29;20766;-72
2021/12/01 01:57:57;;;;;;;2.20;1.30;;;10.10;73.10;;;;;;4954081;28;20393;-73
2021/12/01 02:00:23;;;;;;;1.30;1.20;;;10.00;74.50;;;;;;4953580;28;20417;-72
2021/12/01 02:02:49;;;;;;;2.00;1.17;;;10.00;73.70;;;;;;4953675;29;20894;-73
2021/12/01 02:05:15;;;;;;;4.30;1.30;;;10.00;73.30;;;;;;4953883;29;20394;-73
2021/12/01 02:07:42;;;;;;;1.20;1.10;;;10.00;72.60;;;;;;4954502;28;20401;-72
2021/12/01 02:10:08;;;;;;;1.60;1.50;;;10.00;70.50;;;;;;4958937;29;20469;-73
2021/12/01 02:12:34;;;;;;;2.70;1.40;;;10.00;70.80;;;;;;4959342;28;20409;-73
2021/12/01 02:15:00;;;;;;;1.27;1.10;;;10.00;70.50;;;;;;4956987;28;20464;-73
2021/12/01 02:17:26;;;;;;;1.60;1.30;;;10.00;70.90;;;;;;4958993;29;20401;-73
2021/12/01 02:19:53;;;;;;;2.72;1.40;;;10.00;69.90;;;;;;4956766;28;20406;-72
2021/12/01 02:22:18;;;;;;;3.10;1.40;;;10.00;69.30;;;;;;4957303;28;20402;-72
2021/12/01 02:24:47;;;;;;;5.50;1.60;;;10.00;70.20;;;;;;4956758;28;20903;-73
2021/12/01 02:27:13;;;;;;;1.50;1.40;;;10.00;70.40;;;;;;4937113;29;20391;-72
2021/12/01 02:29:39;;;;;;;3.85;1.90;;;9.90;70.10;;;;;;4941954;29;20409;-72
2021/12/01 02:32:05;;;;;;;2.50;2.17;;;10.00;69.60;;;;;;4955501;28;20378;-73
2021/12/01 02:34:38;;;;;;;4.00;2.00;;;10.00;67.30;;;;;;4955855;29;20394;-73
2021/12/01 02:37:05;;;;;;;2.50;2.20;;;10.00;67.00;;;;;;4956591;28;20414;-73
2021/12/01 02:39:31;;;;;;;2.30;2.00;;;10.00;68.20;;;;;;4957265;29;20811;-71
2021/12/01 02:42:01;;;;;;;2.45;2.25;;;9.90;68.80;;;;;;4963818;28;20481;-73
2021/12/01 02:44:27;;;;;;;3.88;2.70;;;9.90;68.20;;;;;;4970152;28;20394;-71
2021/12/01 02:46:54;;;;;;;4.88;2.70;;;9.90;68.20;;;;;;4971555;29;20385;-72
2021/12/01 02:49:24;;;;;;;3.17;2.90;;;9.90;68.20;;;;;;4972792;28;20386;-73
2021/12/01 02:51:54;;;;;;;3.70;3.00;;;9.90;67.90;;;;;;4964161;29;20413;-73
2021/12/01 02:54:20;;;;;;;4.20;3.40;;;9.90;68.10;;;;;;4961974;29;20501;-73
2021/12/01 02:56:48;;;;;;;4.10;3.70;;;9.90;66.90;;;;;;4959528;28;20390;-73
2021/12/01 02:59:15;;;;;;;5.30;3.63;;;9.80;67.80;;;;;;4961852;28;20397;-72
2021/12/01 03:01:40;;;;;;;4.47;3.83;;;9.90;68.50;;;;;;4962015;29;20493;-73
2021/12/01 03:04:07;;;;;;;4.20;3.90;;;9.90;68.20;;;;;;4978995;28;20522;-72
2021/12/01 03:06:35;;;;;;;7.97;4.20;;;9.90;67.20;;;;;;4956362;28;20386;-73
2021/12/01 03:09:02;;;;;;;5.30;4.75;;;9.80;66.50;;;;;;4960222;28;20389;-73
2021/12/01 03:11:27;;;;;;;7.78;4.80;;;9.90;65.60;;;;;;4959874;29;20433;-73
2021/12/01 03:13:54;;;;;;;5.30;4.80;;;9.90;65.10;;;;;;4965413;29;20402;-73
2021/12/01 03:16:20;;;;;;;5.90;4.55;;;9.80;65.20;;;;;;4962070;28;20445;-72
2021/12/01 03:18:45;;;;;;;6.47;4.87;;;9.80;66.40;;;;;;4956186;28;20464;-73
2021/12/01 03:21:12;;;;;;;5.50;5.00;;;9.90;63.50;;;;;;4952829;28;20445;-72
2021/12/01 03:23:38;;;;;;;7.55;5.22;;;9.90;62.30;;;;;;4934908;29;20495;-73
2021/12/01 03:26:04;;;;;;;7.35;5.05;;;9.80;63.20;;;;;;4953055;29;20394;-73
2021/12/01 03:28:30;;;;;;;6.10;5.03;;;9.90;64.10;;;;;;4952935;29;20752;-72
2021/12/01 03:30:56;;;;;;;6.50;5.50;;;9.80;65.70;;;;;;4952120;29;20485;-72
2021/12/01 03:33:23;;;;;;;7.57;5.50;;;9.80;64.70;;;;;;4952989;29;20875;-74
2021/12/01 03:35:51;;;;;;;10.10;5.50;;;9.70;65.20;;;;;;4952638;29;20404;-73
2021/12/01 03:38:18;;;;;;;6.50;5.40;;;9.70;66.00;;;;;;4953954;29;20394;-73
2021/12/01 03:40:45;;;;;;;10.20;6.43;;;9.70;66.20;;;;;;4953150;29;20413;-73
2021/12/01 03:43:10;;;;;;;6.93;6.15;;;9.70;66.50;;;;;;4953730;28;20792;-73
2021/12/01 03:45:36;;;;;;;10.13;5.80;;;9.70;66.60;;;;;;4953565;29;20398;-73
2021/12/01 03:48:02;;;;;;;8.25;6.20;;;9.60;66.30;;;;;;4955338;28;20392;-73
2021/12/01 03:50:28;;;;;;;8.50;6.47;;;9.60;67.60;;;;;;4956423;29;20432;-73
2021/12/01 03:52:53;;;;;;;8.43;6.68;;;9.60;68.60;;;;;;4955498;29;20413;-73
2021/12/01 03:55:19;;;;;;;8.48;6.90;;;9.60;69.50;;;;;;4956432;29;20444;-73
2021/12/01 03:57:44;;;;;;;9.38;6.95;;;9.60;71.60;;;;;;4954216;29;20755;-74
2021/12/01 04:00:13;;;;;;;12.57;7.10;;;9.60;72.90;;;;;;4938480;29;20417;-72
2021/12/01 04:02:40;;;;;;;9.57;6.80;;;9.50;74.50;;;;;;4940187;29;20399;-75
2021/12/01 04:05:06;;;;;;;10.88;7.70;;;9.40;74.20;;;;;;4959975;28;20881;-75
2021/12/01 04:07:32;;;;;;;11.13;7.50;;;9.40;76.90;;;;;;4957361;28;20835;-75
2021/12/01 04:09:58;;;;;;;11.50;7.25;;;9.30;77.40;;;;;;4956463;29;20421;-75
2021/12/01 04:12:25;;;;;;;8.48;6.93;;;9.30;79.00;;;;;;4955384;29;20398;-75
2021/12/01 04:14:51;;;;;;;9.13;6.80;;;9.30;76.80;;;;;;4955291;29;20405;-75
2021/12/01 04:17:16;;;;;;;8.70;6.72;;;9.20;76.50;;;;;;4955626;28;20838;-76
2021/12/01 04:19:42;;;;;;;8.25;6.40;;;9.20;77.10;;;;;;4955546;28;20488;-77
2021/12/01 04:22:08;;;;;;;8.63;6.72;;;9.20;76.60;;;;;;4955780;29;20402;-75
2021/12/01 04:24:33;;;;;;;11.02;6.45;;;9.20;74.50;;;;;;4956020;29;20402;-75
2021/12/01 04:26:59;;;;;;;7.25;5.90;;;9.20;73.40;;;;;;4955278;28;20883;-75
2021/12/01 04:29:26;;;;;;;8.95;6.55;;;9.20;70.70;;;;;;4955725;28;20764;-75
2021/12/01 04:31:52;;;;;;;9.70;6.40;;;9.30;68.30;;;;;;4955826;28;20390;-78
2021/12/01 04:34:20;;;;;;;10.40;6.70;;;9.30;68.70;;;;;;4954870;29;20402;-76
2021/12/01 04:36:47;;;;;;;9.90;6.88;;;9.30;68.30;;;;;;4955889;28;20800;-76
2021/12/01 04:39:14;;;;;;;13.50;5.85;;;9.30;66.60;;;;;;4957225;29;20953;-76
2021/12/01 04:41:50;;;;;;;7.78;5.90;;;9.30;66.20;;;;;;4954922;28;20449;-75
2021/12/01 04:44:15;;;;;;;7.13;5.50;;;9.40;64.80;;;;;;4956252;29;20443;-75
2021/12/01 04:46:46;;;;;;;8.77;5.93;;;9.40;63.10;;;;;;4957003;28;20460;-75
2021/12/01 04:49:18;;;;;;;8.52;5.70;;;9.40;62.60;;;;;;4955730;28;20434;-75
2021/12/01 04:51:48;;;;;;;9.20;5.10;;;9.40;63.30;;;;;;4955807;28;20456;-75
2021/12/01 04:54:15;;;;;;;6.07;5.25;;;9.30;61.10;;;;;;4955641;28;20410;-75
2021/12/01 04:56:42;;;;;;;6.95;4.30;;;9.30;62.10;;;;;;4936129;29;20395;-75
2021/12/01 04:59:08;;;;;;;7.82;4.63;;;9.40;60.40;;;;;;4950413;28;20610;-75
2021/12/01 05:01:35;;;;;;;7.20;4.80;;;9.40;60.50;;;;;;4955337;28;20502;-75
2021/12/01 05:04:01;;;;;;;6.70;4.78;;;9.40;59.80;;;;;;4955085;28;20396;-75
2021/12/01 05:06:26;;;;;;;7.33;4.20;;;9.40;58.90;;;;;;4955128;28;20860;-75
2021/12/01 05:08:52;;;;;;;7.37;3.60;;;9.40;58.70;;;;;;4954642;29;20405;-75
2021/12/01 05:11:17;;;;;;;6.53;4.00;;;9.40;57.90;;;;;;4955000;29;20824;-76
2021/12/01 05:13:43;;;;;;;7.60;3.80;;;9.40;58.50;;;;;;4954627;29;20810;-76
2021/12/01 05:16:08;;;;;;;6.67;3.83;;;9.50;56.20;;;;;;4953926;29;20421;-75
2021/12/01 05:18:34;;;;;;;5.47;3.47;;;9.50;56.60;;;;;;4953395;29;20401;-76
2021/12/01 05:21:00;;;;;;;5.10;3.57;;;9.50;56.10;;;;;;4954143;29;20587;-75
2021/12/01 05:23:25;;;;;;;3.50;3.20;;;9.50;55.20;;;;;;4954012;29;20622;-74
2021/12/01 05:25:51;;;;;;;5.25;3.28;;;9.50;54.70;;;;;;4954188;29;20402;-76
2021/12/01 05:28:16;;;;;;;3.22;2.80;;;9.50;55.80;;;;;;4954255;28;20420;-76
2021/12/01 05:30:43;;;;;;;4.57;3.20;;;9.50;54.50;;;;;;4954739;29;20485;-76
2021/12/01 05:33:09;;;;;;;4.50;2.92;;;9.50;53.90;;;;;;4954470;28;20397;-77
2021/12/01 05:35:36;;;;;;;3.15;2.70;;;9.60;53.80;;;;;;4954528;29;20473;-76
2021/12/01 05:38:05;;;;;;;3.33;2.77;;;9.60;55.00;;;;;;4954074;28;20450;-76
2021/12/01 05:40:31;;;;;;;6.53;2.95;;;9.60;55.60;;;;;;4955440;28;20779;-76
2021/12/01 05:42:58;;;;;;;3.70;2.88;;;9.60;54.90;;;;;;4954327;28;20810;-76
2021/12/01 05:45:23;;;;;;;3.75;2.72;;;9.50;55.30;;;;;;4953615;28;20393;-75
2021/12/01 05:47:49;;;;;;;2.80;2.60;;;9.50;55.50;;;;;;4953099;29;20390;-76
2021/12/01 05:50:16;;;;;;;4.93;2.90;;;9.60;55.60;;;;;;4956059;29;20401;-76
2021/12/01 05:52:42;;;;;;;2.90;2.60;;;9.60;55.30;;;;;;4938439;29;20805;-76
2021/12/01 05:55:08;;;;;;;3.30;2.60;;;9.60;54.90;;;;;;4943800;29;20468;-74
2021/12/01 05:57:34;;;;;;;2.80;2.42;;;9.60;54.50;;;;;;4954512;28;20811;-75
2021/12/01 05:59:59;;;;;;;4.82;2.70;;;9.70;54.80;;;;;;4954608;28;20385;-75
2021/12/01 06:02:26;;;;;;;4.40;2.57;;;9.70;55.40;;;;;;4955167;28;20390;-75
2021/12/01 06:04:52;;;;;;;3.50;2.40;;;9.60;55.20;;;;;;4954851;29;20398;-75
2021/12/01 06:07:17;;;;;;;3.80;2.20;;;9.70;54.40;;;;;;4955170;29;20815;-76
2021/12/01 06:09:43;;;;;;;2.27;1.93;;;9.80;53.20;;;;;;4955316;28;20397;-76
2021/12/01 06:12:12;;;;;;;3.20;2.17;;;9.70;53.80;;;;;;4955033;29;20401;-76
2021/12/01 06:14:38;;;;;;;2.40;1.88;;;9.60;54.20;;;;;;4954121;29;20413;-76
2021/12/01 06:17:04;;;;;;;4.00;1.88;;;9.70;54.60;;;;;;4950386;29;20441;-76
2021/12/01 06:19:29;;;;;;;3.83;2.00;;;9.60;54.20;;;;;;4952490;29;21165;-75
2021/12/01 06:21:55;;;;;;;2.40;1.90;;;9.70;54.50;;;;;;4952825;29;20409;-76
2021/12/01 06:24:20;;;;;;;2.03;1.87;;;9.70;54.20;;;;;;4950955;28;20484;-76
2021/12/01 06:26:46;;;;;;;2.20;2.00;;;9.70;53.60;;;;;;4950574;28;20866;-75
2021/12/01 06:29:12;;;;;;;2.33;2.10;;;9.80;53.50;;;;;;4952774;29;20406;-75
2021/12/01 06:31:37;;;;;;;3.63;2.17;;;9.80;53.40;;;;;;4953130;28;20401;-75
2021/12/01 06:34:03;;;;;;;3.38;1.90;;;9.80;52.70;;;;;;4952473;29;20406;-76
2021/12/01 06:36:29;;;;;;;2.22;1.80;;;9.90;52.80;;;;;;4952659;29;20938;-76
2021/12/01 06:38:54;;;;;;;3.30;1.80;;;9.90;52.30;;;;;;4952760;28;20815;-77
2021/12/01 06:41:20;;;;;;;5.57;2.03;;;9.80;52.20;;;;;;4967318;28;20500;-76
2021/12/01 06:43:45;;;;;;;1.60;1.50;;;9.80;51.10;;;;;;4952611;29;20417;-76
2021/12/01 06:46:11;;;;;;;1.75;1.65;;;9.80;52.00;;;;;;4951089;29;20409;-76
2021/12/01 06:48:37;;;;;;;2.20;1.73;;;9.90;52.50;;;;;;4945105;29;20467;-75
2021/12/01 06:51:02;;;;;;;4.10;1.80;;;9.90;51.30;;;;;;4951159;29;20406;-76
2021/12/01 06:53:29;;;;;;;4.97;1.75;;;9.90;51.60;;;;;;4952068;29;20468;-75
2021/12/01 06:55:55;;;;;;;2.70;1.70;;;9.90;51.20;;;;;;4940131;29;20403;-76
2021/12/01 06:58:21;;;;;;;2.97;1.70;;;9.90;50.90;;;;;;4953571;29;20412;-79
2021/12/01 07:00:47;;;;;;;3.45;1.58;;;10.00;49.30;;;;;;4953620;29;20418;-75
2021/12/01 07:03:12;;;;;;;2.75;1.50;;;10.00;49.50;;;;;;4952841;28;20410;-74
2021/12/01 07:05:38;;;;;;;2.00;1.30;;;10.00;49.00;;;;;;4951921;29;20728;-74
2021/12/01 07:08:05;;;;;;;1.38;1.20;;;10.00;48.70;;;;;;4951912;29;20410;-72
2021/12/01 07:10:30;;;;;;;2.10;1.48;;;10.00;49.20;;;;;;4952203;28;20401;-73
2021/12/01 07:12:56;;;;;;;3.10;1.30;;;10.10;48.70;;;;;;4949378;29;20450;-75
2021/12/01 07:15:22;;;;;;;1.95;1.20;;;10.10;48.70;;;;;;4951130;28;20420;-74
2021/12/01 07:17:48;;;;;;;2.40;1.30;;;10.10;48.80;;;;;;4950173;28;20505;-75
2021/12/01 07:20:14;;;;;;;3.60;1.47;;;10.10;49.00;;;;;;4945828;28;20413;-76
2021/12/01 07:22:42;;;;;;;1.70;1.13;;;10.10;49.20;;;;;;4954026;28;20433;-75
2021/12/01 07:25:08;;;;;;;3.53;1.10;;;10.10;49.40;;;;;;4957153;28;20402;-80
2021/12/01 07:27:34;;;;;;;1.20;1.10;;;10.10;49.30;;;;;;4958808;28;20393;-73
2021/12/01 07:30:00;;;;;;;1.00;1.00;;;10.20;48.70;;;;;;4956276;29;20567;-76
2021/12/01 07:32:25;;;;;;;3.00;1.27;;;10.20;48.70;;;;;;4963278;28;20465;-79
2021/12/01 07:34:51;;;;;;;2.23;1.00;;;10.20;50.10;;;;;;4960903;28;20416;-74
2021/12/01 07:37:18;;;;;;;1.30;1.20;;;10.30;49.00;;;;;;4957546;29;20413;-77
2021/12/01 07:39:46;;;;;;;2.50;0.95;;;10.20;49.30;;;;;;4956571;28;20406;-76
2021/12/01 07:42:12;;;;;;;1.80;1.10;;;10.20;49.60;;;;;;4955271;28;20384;-76
2021/12/01 07:44:38;;;;;;;3.20;1.10;;;10.20;49.60;;;;;;4972502;28;20448;-75
2021/12/01 07:47:05;;;;;;;1.50;0.90;;;10.20;49.60;;;;;;4972272;29;20401;-73
2021/12/01 07:49:31;;;;;;;1.00;0.90;;;10.20;49.90;;;;;;4961883;29;20404;-74
2021/12/01 07:51:57;;;;;;;2.03;0.80;;;10.30;49.90;;;;;;4960571;28;20508;-73
2021/12/01 07:54:22;;;;;;;2.40;0.90;;;10.20;49.80;;;;;;4968868;28;20483;-73
2021/12/01 07:56:48;;;;;;;2.00;1.00;;;10.30;49.10;;;;;;4973587;28;20415;-73
2021/12/01 07:59:17;;;;;;;1.00;0.70;;;10.20;49.70;;;;;;4951169;29;20415;-73
2021/12/01 08:01:43;;;;;;;1.25;0.80;;;10.30;49.80;;;;;;4956340;29;20808;-73
2021/12/01 08:04:10;;;;;;;1.55;0.88;;;10.20;51.10;;;;;;4956619;29;20433;-73
2021/12/01 08:06:35;;;;;;;3.90;0.80;;;10.20;51.90;;;;;;4956981;28;20411;-73
2021/12/01 08:09:02;;;;;;;0.90;0.70;;;10.20;51.20;;;;;;4956544;29;20398;-74
2021/12/01 08:11:28;;;;;;;1.47;0.80;;;10.20;51.50;;;;;;4954579;28;20410;-73
2021/12/01 08:13:54;;;;;;;1.20;0.90;;;10.20;51.90;;;;;;4953880;28;20414;-73
2021/12/01 08:16:20;;;;;;;2.70;0.90;;;10.20;51.80;;;;;;4955212;28;20413;-73
2021/12/01 08:18:51;;;;;;;1.90;0.80;;;10.30;52.10;;;;;;4955261;28;20950;-75
2021/12/01 08:21:19;;;;;;;2.55;0.70;;;10.20;51.70;;;;;;4954153;28;20505;-75
2021/12/01 08:23:45;;;;;;;0.90;0.70;;;10.20;52.20;;;;;;4953141;29;20771;-75
2021/12/01 08:26:11;;;;;;;1.90;0.80;;;10.20;53.00;;;;;;4955607;29;20401;-74
2021/12/01 08:28:37;;;;;;;2.10;1.10;;;10.20;53.20;;;;;;4953796;28;20419;-76
2021/12/01 08:31:03;;;;;;;1.90;0.90;;;10.20;52.70;;;;;;4954474;29;20398;-76
2021/12/01 08:33:29;;;;;;;1.60;0.70;;;10.20;52.30;;;;;;4950149;28;20909;-74
2021/12/01 08:35:54;;;;;;;4.30;1.00;;;10.30;52.60;;;;;;4949629;29;20436;-74
2021/12/01 08:38:20;;;;;;;1.37;0.80;;;10.20;53.10;;;;;;4954335;28;20410;-74
2021/12/01 08:40:45;;;;;;;1.20;0.90;;;10.30;51.80;;;;;;4950605;28;20775;-73
2021/12/01 08:43:11;;;;;;;1.70;0.90;;;10.30;51.90;;;;;;4935778;29;20483;-72
2021/12/01 08:45:36;;;;;;;2.93;0.90;;;10.40;51.40;;;;;;4936063;29;20391;-74
2021/12/01 08:48:03;;;;;;;0.80;0.80;;;10.40;51.80;;;;;;4946100;29;20883;-74
2021/12/01 08:50:29;;;;;;;1.30;0.80;;;10.40;52.40;;;;;;4954862;29;20390;-74
2021/12/01 08:52:55;;;;;;;2.08;0.75;;;10.40;51.90;;;;;;4954358;28;20453;-73
2021/12/01 08:55:24;;;;;;;1.70;0.90;;;10.40;51.50;;;;;;4954633;28;20998;-73
2021/12/01 08:57:51;;;;;;;2.10;1.00;;;10.40;51.80;;;;;;4952858;29;20421;-73
2021/12/01 09:00:18;;;;;;;1.80;1.00;;;10.50;51.80;;;;;;4954969;28;20413;-73
2021/12/01 09:02:44;;;;;;;1.50;0.90;;;10.50;52.10;;;;;;4954449;29;20394;-74
2021/12/01 09:05:09;;;;;;;4.10;1.67;;;10.50;52.40;;;;;;4955213;29;20751;-73
2021/12/01 09:07:35;;;;;;;1.40;0.80;;;10.50;52.10;;;;;;4953759;29;20851;-72
2021/12/01 09:10:01;;;;;;;1.73;1.30;;;10.50;52.60;;;;;;4954389;29;20897;-73
2021/12/01 09:12:26;;;;;;;1.50;1.20;;;10.50;51.70;;;;;;4954344;29;20760;-73
2021/12/01 09:14:54;;;;;;;1.20;0.80;;;10.50;52.00;;;;;;4954580;28;20392;-73
2021/12/01 09:17:20;;;;;;;0.90;0.80;;;10.60;52.50;;;;;;4954484;29;20857;-73
2021/12/01 09:19:46;;;;;;;1.00;0.80;;;10.50;53.70;;;;;;4953198;29;20461;-75
2021/12/01 09:22:12;;;;;;;2.15;1.00;;;10.50;54.00;;;;;;4954439;29;20426;-74
2021/12/01 09:24:39;;;;;;;2.55;0.90;;;10.50;54.60;;;;;;4959737;28;20401;-73
2021/12/01 09:27:05;;;;;;;1.95;1.00;;;10.50;54.80;;;;;;4953252;28;20425;-75
2021/12/01 09:29:30;;;;;;;1.05;0.80;;;10.50;55.00;;;;;;4954342;29;20398;-74
2021/12/01 09:31:58;;;;;;;1.00;0.90;;;10.40;55.10;;;;;;4954032;29;20390;-74
2021/12/01 09:34:23;;;;;;;1.10;0.80;;;10.50;56.90;;;;;;4956198;28;20815;-74
2021/12/01 09:36:49;;;;;;;1.00;0.60;;;10.50;57.30;;;;;;4959672;28;20402;-74
2021/12/01 09:39:15;;;;;;;2.30;0.70;;;10.50;57.10;;;;;;4956338;28;20481;-74
2021/12/01 09:41:41;;;;;;;1.42;0.70;;;10.40;58.10;;;;;;4954203;29;20423;-74
2021/12/01 09:44:07;;;;;;;1.70;0.70;;;10.50;57.40;;;;;;4954143;28;20390;-74
2021/12/01 09:46:33;;;;;;;1.20;0.80;;;10.50;56.80;;;;;;4953243;28;20452;-74
2021/12/01 09:48:59;;;;;;;2.50;0.90;;;10.50;56.90;;;;;;4954302;29;20429;-74
2021/12/01 09:51:24;;;;;;;1.00;0.70;;;10.60;56.60;;;;;;4953272;29;20488;-74
2021/12/01 09:53:52;;;;;;;1.50;0.80;;;10.60;56.00;;;;;;4953834;29;20401;-74
2021/12/01 09:56:18;;;;;;;1.90;0.90;;;10.50;56.20;;;;;;4948935;29;20395;-73
2021/12/01 09:58:44;;;;;;;0.70;0.60;;;10.60;55.70;;;;;;4934537;29;20510;-73
2021/12/01 10:01:15;;;;;;;2.00;0.70;;;10.50;55.90;;;;;;4934486;29;20427;-74
2021/12/01 10:03:42;;;;;;;1.50;0.60;;;10.50;56.00;;;;;;4941345;29;20398;-74
2021/12/01 10:06:16;;;;;;;1.10;0.70;;;10.50;55.60;;;;;;4952993;28;20457;-73
2021/12/01 10:08:54;;;;;;;0.80;0.60;;;10.60;54.40;;;;;;4952977;29;20950;-73
2021/12/01 10:11:26;;;;;;;1.05;0.70;;;10.60;54.20;;;;;;4952726;29;20408;-75
2021/12/01 10:14:08;;;;;;;4.15;0.80;;;10.60;55.20;;;;;;4951919;29;20402;-73
2021/12/01 10:16:37;;;;;;;2.70;0.90;;;10.60;55.50;;;;;;4949429;28;20424;-74
2021/12/01 10:19:09;;;;;;;1.25;0.70;;;10.60;55.20;;;;;;4946165;28;20404;-74
2021/12/01 10:21:38;;;;;;;0.80;0.60;;;10.70;55.10;;;;;;4950604;29;20424;-74
2021/12/01 10:24:10;;;;;;;1.52;0.80;;;10.70;54.90;;;;;;4948849;28;20419;-75
2021/12/01 10:26:41;;;;;;;2.10;0.60;;;10.70;55.20;;;;;;4944392;29;20394;-75
2021/12/01 10:29:10;;;;;;;1.20;0.70;;;10.80;54.50;;;;;;4952805;28;20428;-74
2021/12/01 10:31:48;;;;;;;1.10;0.88;;;10.80;54.60;;;;;;4952163;29;20499;-74
2021/12/01 10:34:33;;;;;;;0.80;0.70;;;10.80;55.00;;;;;;4950922;29;20472;-73
2021/12/01 10:37:28;;;;;;;1.00;0.70;;;10.80;55.50;;;;;;4951530;29;20406;-74
2021/12/01 10:40:12;;;;;;;1.30;0.70;;;10.80;55.60;;;;;;4949193;28;20429;-74
2021/12/01 10:42:55;;;;;;;1.35;0.70;;;10.80;55.80;;;;;;4951318;29;20398;-74
2021/12/01 10:45:23;;;;;;;1.90;0.80;;;10.80;56.00;;;;;;4950113;28;20402;-75
2021/12/01 10:47:49;;;;;;;0.90;0.70;;;10.70;57.70;;;;;;4950342;29;20405;-74
2021/12/01 10:50:17;;;;;;;2.25;1.00;;;10.80;57.90;;;;;;4953761;28;20410;-74
2021/12/01 10:53:00;;;;;;;2.00;0.88;;;10.70;59.30;;;;;;4946214;28;20890;-73
2021/12/01 10:55:26;;;;;;;1.70;1.10;;;10.80;58.10;;;;;;4952741;28;20446;-74
2021/12/01 10:57:55;;;;;;;2.20;1.10;;;10.80;58.90;;;;;;4948320;28;20410;-74
2021/12/01 11:00:23;;;;;;;1.10;0.90;;;10.80;59.00;;;;;;4948049;28;20414;-74
2021/12/01 11:02:50;;;;;;;1.63;0.80;;;10.80;60.40;;;;;;4950717;29;20557;-76
2021/12/01 11:05:31;;;;;;;1.10;0.80;;;10.80;60.40;;;;;;4951467;28;20911;-74
2021/12/01 11:08:08;;;;;;;1.20;0.82;;;10.70;60.60;;;;;;4951022;29;20409;-75
2021/12/01 11:10:35;;;;;;;0.90;0.80;;;10.70;59.80;;;;;;4950245;28;20441;-74
2021/12/01 11:13:02;;;;;;;2.10;0.90;;;10.70;60.60;;;;;;4947713;29;20402;-74
2021/12/01 11:15:42;;;;;;;1.27;0.90;;;10.70;59.90;;;;;;4953463;28;20394;-75
2021/12/01 11:18:15;;;;;;;2.20;1.05;;;10.80;59.40;;;;;;4947197;29;20425;-75
2021/12/01 11:20:44;;;;;;;1.77;1.10;;;10.80;58.20;;;;;;4936817;29;20419;-75
2021/12/01 11:23:13;;;;;;;4.30;1.70;;;10.90;58.40;;;;;;4947337;28;20419;-75
2021/12/01 11:25:41;;;;;;;1.33;0.90;;;11.00;58.70;;;;;;4948752;29;20837;-74
2021/12/01 11:28:09;;;;;;;1.50;1.40;;;11.00;60.20;;;;;;4951130;28;20837;-74
2021/12/01 11:30:36;;;;;;;3.72;1.20;;;10.80;64.50;;;;;;4940758;29;20439;-73
2021/12/01 11:33:02;;;;;;;2.30;1.20;;;10.60;68.70;;;;;;4948142;29;20433;-73
2021/12/01 11:35:28;;;;;;;1.80;1.00;;;10.60;70.60;;;;;;4949263;28;20468;-73
2021/12/01 11:37:57;;;;;;;0.85;0.70;;;10.50;73.70;;;;;;4942049;29;20437;-72
2021/12/01 11:40:26;;;;;;;1.90;0.90;;;10.30;74.30;;;;;;4950366;29;20511;-73
2021/12/01 11:42:52;;;;;;;1.60;1.10;;;10.30;79.00;;;;;;4965459;28;20404;-73
2021/12/01 11:45:18;;;;;;;3.70;1.00;;;10.20;83.20;;;;;;4942415;29;20403;-73
2021/12/01 11:47:47;;;;;;;2.40;1.10;;;10.10;83.30;;;;;;4947821;28;20393;-73
2021/12/01 11:50:23;;;;;;;1.10;1.00;;;10.10;85.20;;;;;;4948166;29;20421;-73
2021/12/01 11:53:22;;;;;;;1.40;1.20;;;10.10;82.30;;;;;;4889992;28;1752595;-74
2021/12/01 11:55:58;;;;;;;2.90;1.25;;;10.10;80.90;;;;;;4946112;29;20415;-76
2021/12/01 11:58:56;;;;;;;2.67;1.33;;;10.10;81.70;;;;;;4948083;29;20405;-76
2021/12/01 12:01:22;;;;;;;2.30;1.30;;;10.20;76.30;;;;;;4946980;29;20417;-75
2021/12/01 12:03:53;;;;;;;4.00;1.70;;;10.10;73.70;;;;;;4951481;28;20477;-74
2021/12/01 12:06:24;;;;;;;2.72;1.77;;;10.00;74.60;;;;;;4951283;29;20410;-75
2021/12/01 12:08:55;;;;;;;2.70;1.30;;;9.90;75.90;;;;;;4951803;28;20406;-74
2021/12/01 12:11:41;;;;;;;3.50;1.70;;;9.90;64.80;;;;;;4955084;29;20402;-74
2021/12/01 12:14:21;;;;;;;2.53;1.20;;;9.80;66.70;;;;;;4957601;28;21833;-74
2021/12/01 12:17:12;;;;;;;2.67;1.38;;;9.70;63.90;;;;;;4954050;28;20716;-75
2021/12/01 12:20:03;;;;;;;2.97;1.60;;;9.70;61.60;;;;;;4952497;29;20421;-76
2021/12/01 12:22:52;;;;;;;2.95;1.50;;;9.70;61.50;;;;;;4953932;29;20416;-74
2021/12/01 12:25:57;;;;;;;2.92;1.48;;;9.80;58.60;;;;;;4953939;29;20416;-74
2021/12/01 12:28:37;;;;;;;9.90;1.50;;;9.90;59.50;;;;;;4955328;29;20402;-74
2021/12/01 12:31:27;;;;;;;1.80;1.10;;;10.00;54.50;;;;;;4955318;28;20385;-75
2021/12/01 12:33:56;;;;;;;8.00;1.35;;;10.00;53.30;;;;;;4950489;29;20549;-75
2021/12/01 12:36:37;;;;;;;2.80;1.10;;;9.90;51.90;;;;;;4952161;29;20398;-75
2021/12/01 12:39:06;;;;;;;5.90;1.30;;;10.00;51.80;;;;;;4953991;28;20401;-76
2021/12/01 12:41:51;;;;;;;8.07;1.30;;;10.10;50.90;;;;;;4952968;29;20834;-75
2021/12/01 12:44:37;;;;;;;3.97;1.60;;;10.00;49.10;;;;;;4949951;29;20400;-74
2021/12/01 12:47:09;;;;;;;4.85;1.60;;;9.90;50.40;;;;;;4956282;29;20440;-76
2021/12/01 12:49:40;;;;;;;5.60;1.58;;;9.90;50.30;;;;;;4951098;29;20880;-76
2021/12/01 12:52:23;;;;;;;2.50;1.20;;;9.90;51.20;;;;;;4942180;29;20410;-78
2021/12/01 12:54:50;;;;;;;5.13;1.40;;;9.90;51.40;;;;;;4951465;29;20430;-77
2021/12/01 12:57:16;;;;;;;3.85;1.20;;;10.00;51.60;;;;;;4949435;29;20868;-77
2021/12/01 12:59:43;;;;;;;5.30;1.65;;;10.00;51.60;;;;;;4954904;29;20417;-76
2021/12/01 13:02:14;;;;;;;6.60;1.50;;;10.10;52.10;;;;;;4956586;28;20473;-75
2021/12/01 13:04:51;;;;;;;3.38;1.60;;;10.10;49.80;;;;;;4953058;29;20422;-76